sensor_id;sensor_type;location;lat;lon;timestamp;P1;durP1;ratioP1;P2;durP2;ratioP2
4323;SDS011;2175;51.018;6.994;2023-04-03T00:01:10;9.77;;;7.00;;
4323;SDS011;2175;51.018;6.994;2023-04-03T00:03:36;14.48;;;7.30;;
4323;SDS011;2175;51.018;6.994;2023-04-03T00:06:02;10.50;;;6.93;;
4323;SDS011;2175;51.018;6.994;2023-04-03T00:08:28;18.27;;;7.45;;
4323;SDS011;2175;51.018;6.994;2023-04-03T00:10:57;14.40;;;7.72;;
4323;SDS011;2175;51.018;6.994;2023-04-03T00:13:23;9.73;;;6.90;;
4323;SDS011;2175;51.018;6.994;2023-04-03T00:15:49;12.90;;;7.13;;
4323;SDS011;2175;51.018;6.994;2023-04-03T00:18:14;11.53;;;6.63;;
4323;SDS011;2175;51.018;6.994;2023-04-03T00:20:40;10.03;;;7.23;;
4323;SDS011;2175;51.018;6.994;2023-04-03T00:23:06;9.60;;;6.70;;
4323;SDS011;2175;51.018;6.994;2023-04-03T00:25:31;11.37;;;7.07;;
4323;SDS011;2175;51.018;6.994;2023-04-03T00:27:57;11.80;;;7.23;;
4323;SDS011;2175;51.018;6.994;2023-04-03T00:30:23;9.37;;;7.27;;
4323;SDS011;2175;51.018;6.994;2023-04-03T00:32:49;14.73;;;7.13;;
4323;SDS011;2175;51.018;6.994;2023-04-03T00:35:15;9.70;;;7.03;;
4323;SDS011;2175;51.018;6.994;2023-04-03T00:37:41;13.55;;;7.20;;
4323;SDS011;2175;51.018;6.994;2023-04-03T00:40:08;8.63;;;6.70;;
4323;SDS011;2175;51.018;6.994;2023-04-03T00:42:38;9.88;;;6.80;;
4323;SDS011;2175;51.018;6.994;2023-04-03T00:47:43;14.50;;;6.90;;
4323;SDS011;2175;51.018;6.994;2023-04-03T00:50:09;10.77;;;6.63;;
4323;SDS011;2175;51.018;6.994;2023-04-03T00:52:35;11.95;;;6.53;;
4323;SDS011;2175;51.018;6.994;2023-04-03T00:55:04;18.85;;;7.15;;
4323;SDS011;2175;51.018;6.994;2023-04-03T00:57:32;11.60;;;7.35;;
4323;SDS011;2175;51.018;6.994;2023-04-03T00:59:59;17.38;;;6.97;;
4323;SDS011;2175;51.018;6.994;2023-04-03T01:02:29;8.70;;;6.35;;
4323;SDS011;2175;51.018;6.994;2023-04-03T01:04:55;18.40;;;6.50;;
4323;SDS011;2175;51.018;6.994;2023-04-03T01:07:26;9.33;;;6.80;;
4323;SDS011;2175;51.018;6.994;2023-04-03T01:09:59;9.38;;;6.85;;
4323;SDS011;2175;51.018;6.994;2023-04-03T01:12:27;9.00;;;6.20;;
4323;SDS011;2175;51.018;6.994;2023-04-03T01:14:59;13.23;;;7.22;;
4323;SDS011;2175;51.018;6.994;2023-04-03T01:22:56;10.00;;;6.55;;
4323;SDS011;2175;51.018;6.994;2023-04-03T01:25:27;8.30;;;6.07;;
4323;SDS011;2175;51.018;6.994;2023-04-03T01:27:52;10.70;;;6.40;;
4323;SDS011;2175;51.018;6.994;2023-04-03T01:30:18;11.10;;;7.17;;
4323;SDS011;2175;51.018;6.994;2023-04-03T01:32:46;8.77;;;6.55;;
4323;SDS011;2175;51.018;6.994;2023-04-03T01:35:11;8.60;;;6.80;;
4323;SDS011;2175;51.018;6.994;2023-04-03T01:37:37;7.75;;;6.22;;
4323;SDS011;2175;51.018;6.994;2023-04-03T01:40:03;8.80;;;6.53;;
4323;SDS011;2175;51.018;6.994;2023-04-03T01:42:30;8.88;;;6.55;;
4323;SDS011;2175;51.018;6.994;2023-04-03T01:44:56;8.53;;;6.20;;
4323;SDS011;2175;51.018;6.994;2023-04-03T01:47:22;8.03;;;6.40;;
4323;SDS011;2175;51.018;6.994;2023-04-03T01:49:47;9.00;;;6.23;;
4323;SDS011;2175;51.018;6.994;2023-04-03T01:52:13;10.30;;;6.90;;
4323;SDS011;2175;51.018;6.994;2023-04-03T01:54:38;12.43;;;6.70;;
4323;SDS011;2175;51.018;6.994;2023-04-03T01:57:04;10.80;;;6.33;;
4323;SDS011;2175;51.018;6.994;2023-04-03T01:59:30;7.67;;;5.87;;
4323;SDS011;2175;51.018;6.994;2023-04-03T02:01:55;8.70;;;7.13;;
4323;SDS011;2175;51.018;6.994;2023-04-03T02:04:21;6.73;;;5.73;;
4323;SDS011;2175;51.018;6.994;2023-04-03T02:06:47;9.20;;;5.97;;
4323;SDS011;2175;51.018;6.994;2023-04-03T02:09:13;8.73;;;6.00;;
4323;SDS011;2175;51.018;6.994;2023-04-03T02:11:39;10.90;;;6.23;;
4323;SDS011;2175;51.018;6.994;2023-04-03T02:14:05;10.83;;;6.50;;
4323;SDS011;2175;51.018;6.994;2023-04-03T02:16:31;9.15;;;6.40;;
4323;SDS011;2175;51.018;6.994;2023-04-03T02:18:56;9.63;;;6.63;;
4323;SDS011;2175;51.018;6.994;2023-04-03T02:21:22;10.23;;;6.10;;
4323;SDS011;2175;51.018;6.994;2023-04-03T02:23:48;13.20;;;6.40;;
4323;SDS011;2175;51.018;6.994;2023-04-03T02:26:15;10.90;;;6.50;;
4323;SDS011;2175;51.018;6.994;2023-04-03T02:28:41;13.30;;;6.50;;
4323;SDS011;2175;51.018;6.994;2023-04-03T02:31:07;9.80;;;6.40;;
4323;SDS011;2175;51.018;6.994;2023-04-03T02:33:34;8.85;;;6.47;;
4323;SDS011;2175;51.018;6.994;2023-04-03T02:36:01;8.52;;;5.45;;
4323;SDS011;2175;51.018;6.994;2023-04-03T02:38:28;8.15;;;6.28;;
4323;SDS011;2175;51.018;6.994;2023-04-03T02:40:59;8.73;;;5.80;;
4323;SDS011;2175;51.018;6.994;2023-04-03T02:43:29;9.45;;;6.20;;
4323;SDS011;2175;51.018;6.994;2023-04-03T02:45:55;8.77;;;5.77;;
4323;SDS011;2175;51.018;6.994;2023-04-03T02:48:21;9.77;;;6.50;;
4323;SDS011;2175;51.018;6.994;2023-04-03T02:50:47;15.55;;;6.80;;
4323;SDS011;2175;51.018;6.994;2023-04-03T02:53:13;10.60;;;6.20;;
4323;SDS011;2175;51.018;6.994;2023-04-03T02:55:38;9.03;;;5.87;;
4323;SDS011;2175;51.018;6.994;2023-04-03T02:58:04;9.20;;;6.37;;
4323;SDS011;2175;51.018;6.994;2023-04-03T03:00:30;7.23;;;5.67;;
4323;SDS011;2175;51.018;6.994;2023-04-03T03:02:55;10.17;;;5.83;;
4323;SDS011;2175;51.018;6.994;2023-04-03T03:05:21;9.53;;;5.90;;
4323;SDS011;2175;51.018;6.994;2023-04-03T03:07:47;9.53;;;6.00;;
4323;SDS011;2175;51.018;6.994;2023-04-03T03:10:12;10.23;;;6.20;;
4323;SDS011;2175;51.018;6.994;2023-04-03T03:12:38;9.00;;;5.90;;
4323;SDS011;2175;51.018;6.994;2023-04-03T03:15:05;9.80;;;5.30;;
4323;SDS011;2175;51.018;6.994;2023-04-03T03:17:32;8.07;;;6.15;;
4323;SDS011;2175;51.018;6.994;2023-04-03T03:19:58;11.50;;;6.40;;
4323;SDS011;2175;51.018;6.994;2023-04-03T03:22:23;10.13;;;6.07;;
4323;SDS011;2175;51.018;6.994;2023-04-03T03:24:49;12.00;;;6.03;;
4323;SDS011;2175;51.018;6.994;2023-04-03T03:27:15;8.37;;;5.60;;
4323;SDS011;2175;51.018;6.994;2023-04-03T03:29:41;8.80;;;5.97;;
4323;SDS011;2175;51.018;6.994;2023-04-03T03:32:07;10.25;;;6.00;;
4323;SDS011;2175;51.018;6.994;2023-04-03T03:34:33;9.93;;;5.63;;
4323;SDS011;2175;51.018;6.994;2023-04-03T03:36:58;6.77;;;5.40;;
4323;SDS011;2175;51.018;6.994;2023-04-03T03:39:24;9.00;;;5.53;;
4323;SDS011;2175;51.018;6.994;2023-04-03T03:41:50;13.40;;;5.40;;
4323;SDS011;2175;51.018;6.994;2023-04-03T03:44:18;9.02;;;5.93;;
4323;SDS011;2175;51.018;6.994;2023-04-03T03:46:44;9.60;;;5.85;;
4323;SDS011;2175;51.018;6.994;2023-04-03T03:49:10;7.67;;;4.90;;
4323;SDS011;2175;51.018;6.994;2023-04-03T03:51:36;8.32;;;5.50;;
4323;SDS011;2175;51.018;6.994;2023-04-03T03:54:02;8.50;;;5.40;;
4323;SDS011;2175;51.018;6.994;2023-04-03T03:56:28;7.57;;;4.82;;
4323;SDS011;2175;51.018;6.994;2023-04-03T03:58:54;6.67;;;4.50;;
4323;SDS011;2175;51.018;6.994;2023-04-03T04:01:21;10.45;;;4.55;;
4323;SDS011;2175;51.018;6.994;2023-04-03T04:03:49;7.47;;;4.60;;
4323;SDS011;2175;51.018;6.994;2023-04-03T04:06:15;8.57;;;4.57;;
4323;SDS011;2175;51.018;6.994;2023-04-03T04:08:41;5.70;;;3.40;;
4323;SDS011;2175;51.018;6.994;2023-04-03T04:11:07;10.30;;;3.73;;
4323;SDS011;2175;51.018;6.994;2023-04-03T04:13:33;8.43;;;3.80;;
4323;SDS011;2175;51.018;6.994;2023-04-03T04:15:59;7.13;;;3.80;;
4323;SDS011;2175;51.018;6.994;2023-04-03T04:18:24;6.87;;;3.80;;
4323;SDS011;2175;51.018;6.994;2023-04-03T04:20:50;10.80;;;3.30;;
4323;SDS011;2175;51.018;6.994;2023-04-03T04:23:16;6.53;;;3.53;;
4323;SDS011;2175;51.018;6.994;2023-04-03T04:25:46;9.63;;;3.88;;
4323;SDS011;2175;51.018;6.994;2023-04-03T04:28:12;7.85;;;3.90;;
4323;SDS011;2175;51.018;6.994;2023-04-03T04:30:39;11.80;;;3.90;;
4323;SDS011;2175;51.018;6.994;2023-04-03T04:33:04;6.35;;;3.20;;
4323;SDS011;2175;51.018;6.994;2023-04-03T04:35:30;10.60;;;3.60;;
4323;SDS011;2175;51.018;6.994;2023-04-03T04:37:56;5.67;;;3.33;;
4323;SDS011;2175;51.018;6.994;2023-04-03T04:40:21;8.37;;;3.73;;
4323;SDS011;2175;51.018;6.994;2023-04-03T04:42:47;5.70;;;3.30;;
4323;SDS011;2175;51.018;6.994;2023-04-03T04:45:13;10.00;;;3.40;;
4323;SDS011;2175;51.018;6.994;2023-04-03T04:47:39;7.40;;;3.20;;
4323;SDS011;2175;51.018;6.994;2023-04-03T04:50:06;7.50;;;3.40;;
4323;SDS011;2175;51.018;6.994;2023-04-03T04:52:31;5.38;;;3.17;;
4323;SDS011;2175;51.018;6.994;2023-04-03T04:54:57;6.03;;;2.83;;
4323;SDS011;2175;51.018;6.994;2023-04-03T04:57:23;8.93;;;3.60;;
4323;SDS011;2175;51.018;6.994;2023-04-03T04:59:48;7.20;;;3.57;;
4323;SDS011;2175;51.018;6.994;2023-04-03T05:02:15;7.90;;;3.10;;
4323;SDS011;2175;51.018;6.994;2023-04-03T05:04:41;6.75;;;3.30;;
4323;SDS011;2175;51.018;6.994;2023-04-03T05:07:06;5.90;;;2.63;;
4323;SDS011;2175;51.018;6.994;2023-04-03T05:09:32;6.97;;;3.10;;
4323;SDS011;2175;51.018;6.994;2023-04-03T05:11:58;8.70;;;3.43;;
4323;SDS011;2175;51.018;6.994;2023-04-03T05:14:23;9.93;;;2.80;;
4323;SDS011;2175;51.018;6.994;2023-04-03T05:16:49;7.33;;;3.20;;
4323;SDS011;2175;51.018;6.994;2023-04-03T05:19:18;7.90;;;3.10;;
4323;SDS011;2175;51.018;6.994;2023-04-03T05:21:45;6.13;;;3.10;;
4323;SDS011;2175;51.018;6.994;2023-04-03T05:24:11;7.00;;;3.17;;
4323;SDS011;2175;51.018;6.994;2023-04-03T05:26:36;9.73;;;3.40;;
4323;SDS011;2175;51.018;6.994;2023-04-03T05:29:02;6.60;;;3.00;;
4323;SDS011;2175;51.018;6.994;2023-04-03T05:31:28;6.85;;;3.05;;
4323;SDS011;2175;51.018;6.994;2023-04-03T05:33:54;5.38;;;3.15;;
4323;SDS011;2175;51.018;6.994;2023-04-03T05:36:20;6.25;;;2.70;;
4323;SDS011;2175;51.018;6.994;2023-04-03T05:38:46;11.80;;;3.17;;
4323;SDS011;2175;51.018;6.994;2023-04-03T05:41:12;7.60;;;3.00;;
4323;SDS011;2175;51.018;6.994;2023-04-03T05:43:38;7.72;;;3.15;;
4323;SDS011;2175;51.018;6.994;2023-04-03T05:46:15;7.00;;;3.20;;
4323;SDS011;2175;51.018;6.994;2023-04-03T05:48:43;10.85;;;3.05;;
4323;SDS011;2175;51.018;6.994;2023-04-03T05:51:23;5.18;;;3.20;;
4323;SDS011;2175;51.018;6.994;2023-04-03T05:53:55;8.75;;;3.63;;
4323;SDS011;2175;51.018;6.994;2023-04-03T05:56:25;9.02;;;3.10;;
4323;SDS011;2175;51.018;6.994;2023-04-03T05:58:51;3.83;;;2.90;;
4323;SDS011;2175;51.018;6.994;2023-04-03T06:01:17;11.20;;;4.40;;
4323;SDS011;2175;51.018;6.994;2023-04-03T06:03:42;5.57;;;2.93;;
4323;SDS011;2175;51.018;6.994;2023-04-03T06:06:10;7.97;;;3.27;;
4323;SDS011;2175;51.018;6.994;2023-04-03T06:08:38;5.55;;;2.90;;
4323;SDS011;2175;51.018;6.994;2023-04-03T06:11:05;7.30;;;3.20;;
4323;SDS011;2175;51.018;6.994;2023-04-03T06:13:31;6.88;;;3.10;;
4323;SDS011;2175;51.018;6.994;2023-04-03T06:15:56;5.27;;;3.13;;
4323;SDS011;2175;51.018;6.994;2023-04-03T06:18:22;7.40;;;3.23;;
4323;SDS011;2175;51.018;6.994;2023-04-03T06:20:48;8.30;;;3.20;;
4323;SDS011;2175;51.018;6.994;2023-04-03T06:23:15;4.93;;;2.40;;
4323;SDS011;2175;51.018;6.994;2023-04-03T06:25:43;12.45;;;2.90;;
4323;SDS011;2175;51.018;6.994;2023-04-03T06:28:09;9.95;;;3.10;;
4323;SDS011;2175;51.018;6.994;2023-04-03T06:30:35;6.20;;;3.20;;
4323;SDS011;2175;51.018;6.994;2023-04-03T06:33:02;4.97;;;3.20;;
4323;SDS011;2175;51.018;6.994;2023-04-03T06:35:28;10.85;;;2.83;;
4323;SDS011;2175;51.018;6.994;2023-04-03T06:37:55;6.80;;;2.72;;
4323;SDS011;2175;51.018;6.994;2023-04-03T06:40:22;8.60;;;2.80;;
4323;SDS011;2175;51.018;6.994;2023-04-03T06:42:50;5.13;;;3.00;;
4323;SDS011;2175;51.018;6.994;2023-04-03T06:45:15;6.57;;;2.67;;
4323;SDS011;2175;51.018;6.994;2023-04-03T06:47:41;8.30;;;3.00;;
4323;SDS011;2175;51.018;6.994;2023-04-03T06:50:08;4.83;;;2.97;;
4323;SDS011;2175;51.018;6.994;2023-04-03T06:52:36;7.88;;;2.60;;
4323;SDS011;2175;51.018;6.994;2023-04-03T06:55:02;7.60;;;3.20;;
4323;SDS011;2175;51.018;6.994;2023-04-03T06:57:28;5.45;;;2.80;;
4323;SDS011;2175;51.018;6.994;2023-04-03T06:59:54;7.83;;;2.80;;
4323;SDS011;2175;51.018;6.994;2023-04-03T07:02:20;8.73;;;2.65;;
4323;SDS011;2175;51.018;6.994;2023-04-03T07:04:46;8.07;;;2.95;;
4323;SDS011;2175;51.018;6.994;2023-04-03T07:07:12;8.73;;;2.83;;
4323;SDS011;2175;51.018;6.994;2023-04-03T07:09:38;11.40;;;3.00;;
4323;SDS011;2175;51.018;6.994;2023-04-03T07:12:03;5.87;;;2.40;;
4323;SDS011;2175;51.018;6.994;2023-04-03T07:14:29;5.77;;;2.57;;
4323;SDS011;2175;51.018;6.994;2023-04-03T07:16:54;6.23;;;2.63;;
4323;SDS011;2175;51.018;6.994;2023-04-03T07:19:20;5.80;;;2.60;;
4323;SDS011;2175;51.018;6.994;2023-04-03T07:21:46;9.47;;;2.73;;
4323;SDS011;2175;51.018;6.994;2023-04-03T07:24:11;6.80;;;2.90;;
4323;SDS011;2175;51.018;6.994;2023-04-03T07:26:37;5.33;;;2.17;;
4323;SDS011;2175;51.018;6.994;2023-04-03T07:29:03;6.20;;;2.80;;
4323;SDS011;2175;51.018;6.994;2023-04-03T07:31:28;5.70;;;2.17;;
4323;SDS011;2175;51.018;6.994;2023-04-03T07:33:54;7.83;;;2.50;;
4323;SDS011;2175;51.018;6.994;2023-04-03T07:36:21;5.90;;;2.63;;
4323;SDS011;2175;51.018;6.994;2023-04-03T07:38:47;4.97;;;2.40;;
4323;SDS011;2175;51.018;6.994;2023-04-03T07:41:13;5.60;;;2.20;;
4323;SDS011;2175;51.018;6.994;2023-04-03T07:43:40;9.50;;;2.15;;
4323;SDS011;2175;51.018;6.994;2023-04-03T07:46:07;7.20;;;2.80;;
4323;SDS011;2175;51.018;6.994;2023-04-03T07:48:33;9.73;;;2.77;;
4323;SDS011;2175;51.018;6.994;2023-04-03T07:51:00;5.20;;;2.40;;
4323;SDS011;2175;51.018;6.994;2023-04-03T07:53:27;5.43;;;2.13;;
4323;SDS011;2175;51.018;6.994;2023-04-03T07:55:56;4.70;;;2.10;;
4323;SDS011;2175;51.018;6.994;2023-04-03T07:58:22;6.90;;;2.80;;
4323;SDS011;2175;51.018;6.994;2023-04-03T08:00:50;6.60;;;2.50;;
4323;SDS011;2175;51.018;6.994;2023-04-03T08:03:16;7.90;;;2.50;;
4323;SDS011;2175;51.018;6.994;2023-04-03T08:05:48;5.73;;;2.43;;
4323;SDS011;2175;51.018;6.994;2023-04-03T08:08:19;5.77;;;2.57;;
4323;SDS011;2175;51.018;6.994;2023-04-03T08:11:03;7.00;;;2.80;;
4323;SDS011;2175;51.018;6.994;2023-04-03T08:13:30;5.20;;;1.80;;
4323;SDS011;2175;51.018;6.994;2023-04-03T08:15:56;7.10;;;2.90;;
4323;SDS011;2175;51.018;6.994;2023-04-03T08:18:30;6.60;;;2.50;;
4323;SDS011;2175;51.018;6.994;2023-04-03T08:20:57;5.80;;;2.20;;
4323;SDS011;2175;51.018;6.994;2023-04-03T08:23:23;7.30;;;2.40;;
4323;SDS011;2175;51.018;6.994;2023-04-03T08:28:19;6.20;;;2.50;;
4323;SDS011;2175;51.018;6.994;2023-04-03T08:30:45;6.10;;;2.60;;
4323;SDS011;2175;51.018;6.994;2023-04-03T08:33:11;4.57;;;2.00;;
4323;SDS011;2175;51.018;6.994;2023-04-03T08:35:40;7.60;;;2.70;;
4323;SDS011;2175;51.018;6.994;2023-04-03T08:38:06;4.50;;;2.27;;
4323;SDS011;2175;51.018;6.994;2023-04-03T08:49:30;4.53;;;2.03;;
4323;SDS011;2175;51.018;6.994;2023-04-03T08:51:59;8.33;;;2.27;;
4323;SDS011;2175;51.018;6.994;2023-04-03T08:54:37;4.67;;;2.20;;
4323;SDS011;2175;51.018;6.994;2023-04-03T08:57:24;4.90;;;2.03;;
4323;SDS011;2175;51.018;6.994;2023-04-03T08:59:51;4.53;;;1.73;;
4323;SDS011;2175;51.018;6.994;2023-04-03T09:05:10;4.53;;;2.17;;
4323;SDS011;2175;51.018;6.994;2023-04-03T09:07:46;5.03;;;2.10;;
4323;SDS011;2175;51.018;6.994;2023-04-03T09:10:23;4.77;;;2.00;;
4323;SDS011;2175;51.018;6.994;2023-04-03T09:31:38;5.50;;;1.90;;
4323;SDS011;2175;51.018;6.994;2023-04-03T09:34:10;4.77;;;2.00;;
4323;SDS011;2175;51.018;6.994;2023-04-03T09:39:28;8.10;;;2.40;;
4323;SDS011;2175;51.018;6.994;2023-04-03T09:42:05;4.87;;;2.03;;
4323;SDS011;2175;51.018;6.994;2023-04-03T09:44:58;5.30;;;2.13;;
4323;SDS011;2175;51.018;6.994;2023-04-03T09:47:34;6.47;;;2.47;;
4323;SDS011;2175;51.018;6.994;2023-04-03T09:50:20;4.73;;;2.07;;
4323;SDS011;2175;51.018;6.994;2023-04-03T09:52:48;5.13;;;2.23;;
4323;SDS011;2175;51.018;6.994;2023-04-03T09:55:17;4.67;;;1.93;;
4323;SDS011;2175;51.018;6.994;2023-04-03T09:57:52;4.30;;;1.83;;
4323;SDS011;2175;51.018;6.994;2023-04-03T10:00:22;6.60;;;2.50;;
4323;SDS011;2175;51.018;6.994;2023-04-03T10:02:51;4.73;;;1.97;;
4323;SDS011;2175;51.018;6.994;2023-04-03T10:05:40;7.27;;;2.23;;
4323;SDS011;2175;51.018;6.994;2023-04-03T10:08:28;6.47;;;2.63;;
4323;SDS011;2175;51.018;6.994;2023-04-03T10:14:00;3.67;;;2.00;;
4323;SDS011;2175;51.018;6.994;2023-04-03T10:16:32;6.40;;;2.23;;
4323;SDS011;2175;51.018;6.994;2023-04-03T10:19:14;5.10;;;2.30;;
4323;SDS011;2175;51.018;6.994;2023-04-03T10:21:57;6.83;;;2.23;;
4323;SDS011;2175;51.018;6.994;2023-04-03T10:27:09;6.30;;;2.27;;
4323;SDS011;2175;51.018;6.994;2023-04-03T10:32:40;6.33;;;2.10;;
4323;SDS011;2175;51.018;6.994;2023-04-03T10:44:18;5.63;;;2.23;;
4323;SDS011;2175;51.018;6.994;2023-04-03T10:47:20;4.07;;;2.00;;
4323;SDS011;2175;51.018;6.994;2023-04-03T10:56:01;3.73;;;1.67;;
4323;SDS011;2175;51.018;6.994;2023-04-03T10:58:40;3.40;;;1.70;;
4323;SDS011;2175;51.018;6.994;2023-04-03T11:01:16;6.40;;;2.00;;
4323;SDS011;2175;51.018;6.994;2023-04-03T11:03:51;8.37;;;1.80;;
4323;SDS011;2175;51.018;6.994;2023-04-03T11:06:23;3.60;;;1.93;;
4323;SDS011;2175;51.018;6.994;2023-04-03T11:09:27;5.00;;;1.80;;
4323;SDS011;2175;51.018;6.994;2023-04-03T11:11:54;7.63;;;2.20;;
4323;SDS011;2175;51.018;6.994;2023-04-03T11:14:33;4.63;;;1.77;;
4323;SDS011;2175;51.018;6.994;2023-04-03T11:27:49;2.73;;;1.27;;
4323;SDS011;2175;51.018;6.994;2023-04-03T11:39:26;3.77;;;1.80;;
4323;SDS011;2175;51.018;6.994;2023-04-03T11:42:12;2.43;;;1.43;;
4323;SDS011;2175;51.018;6.994;2023-04-03T11:44:46;3.23;;;1.53;;
4323;SDS011;2175;51.018;6.994;2023-04-03T11:47:43;4.63;;;2.03;;
4323;SDS011;2175;51.018;6.994;2023-04-03T12:13:42;2.23;;;1.40;;
4323;SDS011;2175;51.018;6.994;2023-04-03T12:16:43;2.70;;;1.50;;
4323;SDS011;2175;51.018;6.994;2023-04-03T12:24:29;6.77;;;1.80;;
4323;SDS011;2175;51.018;6.994;2023-04-03T12:37:39;5.43;;;1.60;;
4323;SDS011;2175;51.018;6.994;2023-04-03T12:40:26;6.00;;;2.00;;
4323;SDS011;2175;51.018;6.994;2023-04-03T12:48:48;2.63;;;1.30;;
4323;SDS011;2175;51.018;6.994;2023-04-03T12:51:19;2.53;;;1.40;;
4323;SDS011;2175;51.018;6.994;2023-04-03T12:53:46;2.23;;;1.50;;
4323;SDS011;2175;51.018;6.994;2023-04-03T12:58:57;2.33;;;1.40;;
4323;SDS011;2175;51.018;6.994;2023-04-03T13:01:38;3.23;;;1.47;;
4323;SDS011;2175;51.018;6.994;2023-04-03T13:04:04;3.03;;;1.37;;
4323;SDS011;2175;51.018;6.994;2023-04-03T13:06:41;3.93;;;1.63;;
4323;SDS011;2175;51.018;6.994;2023-04-03T13:09:20;2.73;;;1.50;;
4323;SDS011;2175;51.018;6.994;2023-04-03T13:12:00;3.50;;;1.60;;
4323;SDS011;2175;51.018;6.994;2023-04-03T13:14:29;5.10;;;1.83;;
4323;SDS011;2175;51.018;6.994;2023-04-03T13:16:56;4.57;;;1.97;;
4323;SDS011;2175;51.018;6.994;2023-04-03T13:19:28;2.33;;;1.73;;
4323;SDS011;2175;51.018;6.994;2023-04-03T13:22:03;1.83;;;1.30;;
4323;SDS011;2175;51.018;6.994;2023-04-03T13:24:46;4.53;;;1.90;;
4323;SDS011;2175;51.018;6.994;2023-04-03T13:27:13;4.60;;;1.73;;
4323;SDS011;2175;51.018;6.994;2023-04-03T13:29:39;4.00;;;2.00;;
4323;SDS011;2175;51.018;6.994;2023-04-03T13:32:05;3.67;;;1.97;;
4323;SDS011;2175;51.018;6.994;2023-04-03T13:34:37;6.97;;;1.80;;
4323;SDS011;2175;51.018;6.994;2023-04-03T13:37:11;6.03;;;2.03;;
4323;SDS011;2175;51.018;6.994;2023-04-03T13:39:59;3.90;;;1.77;;
4323;SDS011;2175;51.018;6.994;2023-04-03T13:42:43;6.03;;;2.37;;
4323;SDS011;2175;51.018;6.994;2023-04-03T13:47:53;10.93;;;2.03;;
4323;SDS011;2175;51.018;6.994;2023-04-03T13:51:40;4.97;;;1.93;;
4323;SDS011;2175;51.018;6.994;2023-04-03T13:56:44;3.37;;;1.70;;
4323;SDS011;2175;51.018;6.994;2023-04-03T14:04:20;4.20;;;1.70;;
4323;SDS011;2175;51.018;6.994;2023-04-03T14:06:52;2.70;;;1.70;;
4323;SDS011;2175;51.018;6.994;2023-04-03T14:09:18;6.27;;;1.97;;
4323;SDS011;2175;51.018;6.994;2023-04-03T14:11:45;3.50;;;1.93;;
4323;SDS011;2175;51.018;6.994;2023-04-03T14:14:14;3.67;;;2.07;;
4323;SDS011;2175;51.018;6.994;2023-04-03T14:16:43;4.27;;;2.00;;
4323;SDS011;2175;51.018;6.994;2023-04-03T14:19:16;6.13;;;2.00;;
4323;SDS011;2175;51.018;6.994;2023-04-03T14:21:44;5.13;;;2.07;;
4323;SDS011;2175;51.018;6.994;2023-04-03T14:24:10;3.23;;;1.87;;
4323;SDS011;2175;51.018;6.994;2023-04-03T14:26:36;4.47;;;1.93;;
4323;SDS011;2175;51.018;6.994;2023-04-03T14:29:02;4.50;;;1.80;;
4323;SDS011;2175;51.018;6.994;2023-04-03T14:31:28;3.07;;;1.57;;
4323;SDS011;2175;51.018;6.994;2023-04-03T14:33:53;6.10;;;1.80;;
4323;SDS011;2175;51.018;6.994;2023-04-03T14:36:20;6.33;;;2.00;;
4323;SDS011;2175;51.018;6.994;2023-04-03T14:38:47;5.50;;;2.00;;
4323;SDS011;2175;51.018;6.994;2023-04-03T14:41:14;4.37;;;2.07;;
4323;SDS011;2175;51.018;6.994;2023-04-03T14:43:41;10.03;;;2.23;;
4323;SDS011;2175;51.018;6.994;2023-04-03T14:46:22;4.40;;;2.20;;
4323;SDS011;2175;51.018;6.994;2023-04-03T14:48:53;4.27;;;2.10;;
4323;SDS011;2175;51.018;6.994;2023-04-03T14:51:19;2.77;;;1.73;;
4323;SDS011;2175;51.018;6.994;2023-04-03T14:53:44;5.87;;;1.93;;
4323;SDS011;2175;51.018;6.994;2023-04-03T14:56:11;5.57;;;2.17;;
4323;SDS011;2175;51.018;6.994;2023-04-03T14:58:39;4.70;;;2.00;;
4323;SDS011;2175;51.018;6.994;2023-04-03T15:01:04;4.80;;;1.70;;
4323;SDS011;2175;51.018;6.994;2023-04-03T15:03:30;5.63;;;1.80;;
4323;SDS011;2175;51.018;6.994;2023-04-03T15:05:55;3.77;;;2.20;;
4323;SDS011;2175;51.018;6.994;2023-04-03T15:08:25;4.67;;;2.50;;
4323;SDS011;2175;51.018;6.994;2023-04-03T15:10:54;5.80;;;1.90;;
4323;SDS011;2175;51.018;6.994;2023-04-03T15:13:23;4.83;;;2.00;;
4323;SDS011;2175;51.018;6.994;2023-04-03T15:15:50;3.23;;;1.80;;
4323;SDS011;2175;51.018;6.994;2023-04-03T15:18:18;4.07;;;2.07;;
4323;SDS011;2175;51.018;6.994;2023-04-03T15:20:46;7.63;;;2.00;;
4323;SDS011;2175;51.018;6.994;2023-04-03T15:23:13;7.70;;;1.80;;
4323;SDS011;2175;51.018;6.994;2023-04-03T15:25:41;5.53;;;2.10;;
4323;SDS011;2175;51.018;6.994;2023-04-03T15:28:08;7.10;;;2.13;;
4323;SDS011;2175;51.018;6.994;2023-04-03T15:30:41;3.37;;;2.03;;
4323;SDS011;2175;51.018;6.994;2023-04-03T15:33:07;3.70;;;1.50;;
4323;SDS011;2175;51.018;6.994;2023-04-03T15:35:33;5.10;;;2.00;;
4323;SDS011;2175;51.018;6.994;2023-04-03T15:37:58;6.60;;;2.17;;
4323;SDS011;2175;51.018;6.994;2023-04-03T15:40:24;6.63;;;2.30;;
4323;SDS011;2175;51.018;6.994;2023-04-03T15:42:50;5.50;;;2.07;;
4323;SDS011;2175;51.018;6.994;2023-04-03T15:45:16;4.63;;;1.80;;
4323;SDS011;2175;51.018;6.994;2023-04-03T15:47:41;3.43;;;1.73;;
4323;SDS011;2175;51.018;6.994;2023-04-03T15:50:08;5.50;;;2.00;;
4323;SDS011;2175;51.018;6.994;2023-04-03T15:52:34;4.13;;;2.10;;
4323;SDS011;2175;51.018;6.994;2023-04-03T15:55:00;4.40;;;2.00;;
4323;SDS011;2175;51.018;6.994;2023-04-03T15:57:25;5.83;;;2.10;;
4323;SDS011;2175;51.018;6.994;2023-04-03T15:59:52;5.50;;;2.10;;
4323;SDS011;2175;51.018;6.994;2023-04-03T16:02:18;5.73;;;2.23;;
4323;SDS011;2175;51.018;6.994;2023-04-03T16:04:43;3.30;;;2.20;;
4323;SDS011;2175;51.018;6.994;2023-04-03T16:07:09;5.00;;;2.13;;
4323;SDS011;2175;51.018;6.994;2023-04-03T16:09:35;5.67;;;1.80;;
4323;SDS011;2175;51.018;6.994;2023-04-03T16:12:01;9.10;;;2.33;;
4323;SDS011;2175;51.018;6.994;2023-04-03T16:14:27;9.57;;;2.10;;
4323;SDS011;2175;51.018;6.994;2023-04-03T16:16:55;3.00;;;1.70;;
4323;SDS011;2175;51.018;6.994;2023-04-03T16:19:21;5.20;;;1.87;;
4323;SDS011;2175;51.018;6.994;2023-04-03T16:21:48;6.03;;;1.80;;
4323;SDS011;2175;51.018;6.994;2023-04-03T16:24:13;4.80;;;2.33;;
4323;SDS011;2175;51.018;6.994;2023-04-03T16:26:39;5.97;;;1.90;;
4323;SDS011;2175;51.018;6.994;2023-04-03T16:29:06;4.23;;;1.80;;
4323;SDS011;2175;51.018;6.994;2023-04-03T16:31:32;7.33;;;1.97;;
4323;SDS011;2175;51.018;6.994;2023-04-03T16:33:58;5.83;;;2.03;;
4323;SDS011;2175;51.018;6.994;2023-04-03T16:36:25;6.27;;;2.17;;
4323;SDS011;2175;51.018;6.994;2023-04-03T16:38:50;4.63;;;1.80;;
4323;SDS011;2175;51.018;6.994;2023-04-03T16:41:16;7.33;;;1.80;;
4323;SDS011;2175;51.018;6.994;2023-04-03T16:43:42;7.17;;;2.10;;
4323;SDS011;2175;51.018;6.994;2023-04-03T16:46:08;6.70;;;2.50;;
4323;SDS011;2175;51.018;6.994;2023-04-03T16:48:33;6.83;;;2.10;;
4323;SDS011;2175;51.018;6.994;2023-04-03T16:50:59;4.73;;;2.20;;
4323;SDS011;2175;51.018;6.994;2023-04-03T16:53:25;3.90;;;2.10;;
4323;SDS011;2175;51.018;6.994;2023-04-03T16:55:51;3.10;;;1.70;;
4323;SDS011;2175;51.018;6.994;2023-04-03T16:58:18;3.23;;;1.83;;
4323;SDS011;2175;51.018;6.994;2023-04-03T17:00:43;3.80;;;1.70;;
4323;SDS011;2175;51.018;6.994;2023-04-03T17:03:09;4.80;;;2.00;;
4323;SDS011;2175;51.018;6.994;2023-04-03T17:05:35;5.13;;;2.07;;
4323;SDS011;2175;51.018;6.994;2023-04-03T17:08:01;4.77;;;1.87;;
4323;SDS011;2175;51.018;6.994;2023-04-03T17:10:27;5.40;;;1.90;;
4323;SDS011;2175;51.018;6.994;2023-04-03T17:12:53;4.33;;;1.93;;
4323;SDS011;2175;51.018;6.994;2023-04-03T17:15:19;5.27;;;2.00;;
4323;SDS011;2175;51.018;6.994;2023-04-03T17:17:48;2.87;;;2.07;;
4323;SDS011;2175;51.018;6.994;2023-04-03T17:20:16;5.30;;;2.30;;
4323;SDS011;2175;51.018;6.994;2023-04-03T17:22:41;4.37;;;1.70;;
4323;SDS011;2175;51.018;6.994;2023-04-03T17:25:07;4.80;;;2.10;;
4323;SDS011;2175;51.018;6.994;2023-04-03T17:27:33;8.20;;;2.40;;
4323;SDS011;2175;51.018;6.994;2023-04-03T17:29:59;4.93;;;2.23;;
4323;SDS011;2175;51.018;6.994;2023-04-03T17:32:24;4.37;;;2.13;;
4323;SDS011;2175;51.018;6.994;2023-04-03T17:34:50;6.90;;;2.10;;
4323;SDS011;2175;51.018;6.994;2023-04-03T17:37:16;3.87;;;1.50;;
4323;SDS011;2175;51.018;6.994;2023-04-03T17:39:42;4.13;;;2.13;;
4323;SDS011;2175;51.018;6.994;2023-04-03T17:42:07;6.83;;;2.43;;
4323;SDS011;2175;51.018;6.994;2023-04-03T17:44:33;7.23;;;2.50;;
4323;SDS011;2175;51.018;6.994;2023-04-03T17:46:59;5.23;;;1.90;;